sim
Sign-in with your pilot id or email,
or register
Callsign
Passwort

Schedule Details

Flight Number: RYR6443 (2)
Departure: Fuerteventura Airport (GCFV) at 14:05
Arrival: Brussels South Charleroi Airport (EBCI) at 18:20
Route: Ryanair Passenger Schedule. Enter filed route here before submitting Pirep.

Weather Information
Getting current METAR information for GCFV 222200Z 35016KT CAVOK 22/17 Q1018
Getting current METAR information for EBCI 222150Z 12003KT CAVOK 21/14 Q1023 NOSIG

Schedule Frequency

Route Map